createdAt,value
2023-04-23T00:01:20.756Z,46.33
2023-04-23T00:03:50.295Z,50.33
2023-04-23T00:06:19.951Z,43.42
2023-04-23T00:08:48.063Z,41.90
2023-04-23T00:11:16.353Z,41.90
2023-04-23T00:13:44.649Z,42.63
2023-04-23T00:16:13.484Z,44.53
2023-04-23T00:18:44.710Z,39.25
2023-04-23T00:21:13.444Z,47.92
2023-04-23T00:23:42.034Z,40.88
2023-04-23T00:26:10.101Z,38.15
2023-04-23T00:28:39.039Z,44.85
2023-04-23T00:31:07.861Z,44.25
2023-04-23T00:33:36.922Z,36.05
2023-04-23T00:36:05.100Z,42.15
2023-04-23T00:38:34.025Z,40.47
2023-04-23T00:41:02.018Z,37.30
2023-04-23T00:43:31.237Z,46.28
2023-04-23T00:46:00.090Z,37.97
2023-04-23T00:48:28.087Z,34.58
2023-04-23T00:51:05.974Z,37.90
2023-04-23T00:53:34.626Z,40.13
2023-04-23T00:56:03.719Z,39.85
2023-04-23T00:58:32.215Z,33.25
2023-04-23T01:01:02.083Z,41.05
2023-04-23T01:03:31.764Z,40.78
2023-04-23T01:06:01.212Z,40.38
2023-04-23T01:08:29.699Z,38.25
2023-04-23T01:10:57.561Z,38.58
2023-04-23T01:13:29.896Z,43.13
2023-04-23T01:15:58.486Z,37.13
2023-04-23T01:18:27.736Z,46.95
2023-04-23T01:20:55.932Z,39.45
2023-04-23T01:23:24.390Z,41.75
2023-04-23T01:25:52.381Z,45.72
2023-04-23T01:28:21.006Z,44.80
2023-04-23T01:30:50.113Z,45.13
2023-04-23T01:33:19.530Z,50.85
2023-04-23T01:35:47.767Z,48.90
2023-04-23T01:38:16.029Z,53.55
2023-04-23T01:40:44.160Z,43.63
2023-04-23T01:43:12.013Z,53.90
2023-04-23T01:45:39.876Z,43.38
2023-04-23T01:48:07.872Z,47.33
2023-04-23T01:50:36.306Z,48.50
2023-04-23T01:53:04.147Z,52.50
2023-04-23T01:55:32.202Z,42.05
2023-04-23T01:58:00.140Z,41.72
2023-04-23T02:00:28.265Z,54.10
2023-04-23T02:02:56.296Z,53.15
2023-04-23T02:05:25.079Z,39.88
2023-04-23T02:07:53.399Z,43.97
2023-04-23T02:10:21.411Z,39.90
2023-04-23T02:12:49.682Z,46.55
2023-04-23T02:15:20.116Z,41.53
2023-04-23T02:17:53.437Z,43.78
2023-04-23T02:20:22.316Z,39.70
2023-04-23T02:22:51.067Z,43.42
2023-04-23T02:25:19.058Z,43.47
2023-04-23T02:27:46.871Z,43.83
2023-04-23T02:30:14.929Z,38.33
2023-04-23T02:32:44.156Z,44.63
2023-04-23T02:35:13.498Z,40.75
2023-04-23T02:37:41.839Z,37.33
2023-04-23T02:40:10.321Z,32.75
2023-04-23T02:42:39.105Z,36.78
2023-04-23T02:45:08.175Z,35.00
2023-04-23T02:47:36.910Z,31.95
2023-04-23T02:50:10.565Z,30.67
2023-04-23T02:52:38.845Z,30.92
2023-04-23T02:55:07.455Z,28.50
2023-04-23T02:57:36.187Z,31.65
2023-04-23T03:00:07.254Z,25.55
2023-04-23T03:02:41.161Z,28.20
2023-04-23T03:05:10.429Z,26.20
2023-04-23T03:07:38.687Z,19.58
2023-04-23T03:10:08.538Z,21.95
2023-04-23T03:12:37.367Z,22.58
2023-04-23T03:15:06.307Z,20.33
2023-04-23T03:17:38.822Z,22.92
2023-04-23T03:20:10.542Z,17.17
2023-04-23T03:22:40.181Z,15.85
2023-04-23T03:25:09.334Z,22.52
2023-04-23T03:27:40.132Z,17.52
2023-04-23T03:30:09.220Z,16.88
2023-04-23T03:32:38.777Z,14.63
2023-04-23T03:35:07.833Z,11.00
2023-04-23T03:37:36.352Z,14.75
2023-04-23T03:40:07.953Z,11.98
2023-04-23T03:42:41.119Z,12.20
2023-04-23T03:45:11.333Z,14.02
2023-04-23T03:47:40.795Z,14.93
2023-04-23T03:50:09.753Z,18.60
2023-04-23T03:52:39.229Z,19.23
2023-04-23T03:55:10.876Z,18.95
2023-04-23T03:57:43.888Z,21.90
2023-04-23T04:00:34.734Z,18.80
2023-04-23T04:03:02.891Z,20.67
2023-04-23T04:05:31.220Z,15.63
2023-04-23T04:07:59.198Z,22.08
2023-04-23T04:10:26.944Z,16.52
2023-04-23T04:12:55.436Z,18.65
2023-04-23T04:15:23.541Z,18.73
2023-04-23T04:17:51.449Z,17.05
2023-04-23T04:20:19.645Z,18.98
2023-04-23T04:22:48.999Z,16.33
2023-04-23T04:25:16.856Z,16.90
2023-04-23T04:27:44.755Z,14.18
2023-04-23T04:30:12.972Z,13.60
2023-04-23T04:32:42.274Z,18.23
2023-04-23T04:35:12.970Z,12.23
2023-04-23T04:37:42.024Z,13.50
2023-04-23T04:40:11.625Z,16.92
2023-04-23T04:42:40.411Z,16.15
2023-04-23T04:45:10.358Z,13.63
2023-04-23T04:47:38.424Z,13.35
2023-04-23T04:50:08.132Z,15.30
2023-04-23T04:52:36.733Z,16.67
2023-04-23T04:55:06.986Z,14.55
2023-04-23T04:57:34.847Z,15.52
2023-04-23T05:00:04.081Z,16.77
2023-04-23T05:02:32.938Z,16.27
2023-04-23T05:05:00.795Z,15.88
2023-04-23T05:07:28.590Z,12.73
2023-04-23T05:09:57.308Z,13.60
2023-04-23T05:12:25.258Z,16.75
2023-04-23T05:14:54.335Z,13.07
2023-04-23T05:17:22.275Z,16.27
2023-04-23T05:19:50.315Z,18.60
2023-04-23T05:22:18.462Z,12.93
2023-04-23T05:24:47.108Z,15.23
2023-04-23T05:27:15.112Z,13.60
2023-04-23T05:29:42.890Z,13.23
2023-04-23T05:32:11.500Z,15.10
2023-04-23T05:34:40.336Z,15.55
2023-04-23T05:37:08.509Z,15.55
2023-04-23T05:39:36.353Z,14.05
2023-04-23T05:42:05.180Z,11.07
2023-04-23T05:44:33.047Z,12.98
2023-04-23T05:47:01.220Z,11.23
2023-04-23T05:49:29.714Z,14.93
2023-04-23T05:51:59.667Z,12.32
2023-04-23T05:54:27.825Z,12.57
2023-04-23T05:56:56.175Z,8.30
2023-04-23T05:59:24.138Z,10.85
2023-04-23T06:01:53.304Z,12.40
2023-04-23T06:04:21.948Z,13.13
2023-04-23T06:06:50.432Z,12.32
2023-04-23T06:09:18.293Z,15.50
2023-04-23T06:11:46.258Z,14.98
2023-04-23T06:14:14.318Z,11.55
2023-04-23T06:16:43.886Z,10.20
2023-04-23T06:19:11.834Z,11.68
2023-04-23T06:21:39.802Z,11.13
2023-04-23T06:24:08.331Z,11.20
2023-04-23T06:26:38.101Z,13.18
2023-04-23T06:29:13.459Z,13.18
2023-04-23T06:31:52.087Z,11.38
2023-04-23T06:34:20.113Z,14.30
2023-04-23T06:36:48.301Z,10.07
2023-04-23T06:39:16.761Z,12.88
2023-04-23T06:41:44.890Z,11.95
2023-04-23T06:44:21.452Z,9.90
2023-04-23T06:46:55.269Z,11.57
2023-04-23T06:49:23.326Z,12.30
2023-04-23T06:51:54.929Z,14.52
2023-04-23T06:54:25.318Z,12.95
2023-04-23T06:56:53.510Z,63.97
2023-04-23T06:59:21.478Z,12.38
2023-04-23T07:01:53.013Z,17.38
2023-04-23T07:04:22.193Z,18.50
2023-04-23T07:06:50.264Z,13.05
2023-04-23T07:09:18.504Z,16.38
2023-04-23T07:11:46.316Z,18.08
2023-04-23T07:14:14.213Z,15.93
2023-04-23T07:16:42.519Z,13.38
2023-04-23T07:19:12.734Z,15.57
2023-04-23T07:21:41.113Z,18.17
2023-04-23T07:24:09.510Z,17.15
2023-04-23T07:26:37.604Z,20.83
2023-04-23T07:29:08.283Z,17.67
2023-04-23T07:31:36.957Z,14.30
2023-04-23T07:34:06.129Z,12.27
2023-04-23T07:36:34.147Z,13.77
2023-04-23T07:39:02.964Z,22.33
2023-04-23T07:41:32.258Z,18.13
2023-04-23T07:44:00.311Z,14.95
2023-04-23T07:46:28.274Z,19.98
2023-04-23T07:48:56.466Z,24.17
2023-04-23T07:51:27.428Z,17.80
2023-04-23T07:53:58.436Z,18.27
2023-04-23T07:56:27.834Z,14.13
2023-04-23T07:58:56.895Z,22.92
2023-04-23T08:01:25.571Z,20.30
2023-04-23T08:03:59.590Z,20.25
2023-04-23T08:06:31.002Z,16.52
2023-04-23T08:09:00.420Z,10.15
2023-04-23T08:11:29.730Z,10.38
2023-04-23T08:13:58.521Z,13.38
2023-04-23T08:16:47.751Z,10.68
2023-04-23T08:19:17.701Z,6.70
2023-04-23T08:21:45.670Z,16.95
2023-04-23T08:24:13.626Z,10.57
2023-04-23T08:26:41.542Z,11.02
2023-04-23T08:29:10.991Z,15.45
2023-04-23T08:31:39.600Z,18.88
2023-04-23T08:34:07.563Z,9.88
2023-04-23T08:36:36.778Z,18.42
2023-04-23T08:39:05.786Z,12.82
2023-04-23T08:41:40.735Z,12.95
2023-04-23T08:44:19.558Z,11.02
2023-04-23T08:46:48.461Z,14.10
2023-04-23T08:49:18.124Z,16.05
2023-04-23T08:51:55.396Z,14.38
2023-04-23T08:54:28.731Z,13.88
2023-04-23T08:56:58.578Z,15.20
2023-04-23T08:59:27.010Z,12.82
2023-04-23T09:02:00.036Z,9.95
2023-04-23T09:04:28.842Z,13.13
2023-04-23T09:06:57.217Z,13.32
2023-04-23T09:09:26.968Z,9.02
2023-04-23T09:11:56.555Z,11.15
2023-04-23T09:14:28.786Z,17.70
2023-04-23T09:16:57.125Z,10.70
2023-04-23T09:19:28.060Z,9.20
2023-04-23T09:21:58.430Z,14.23
2023-04-23T09:24:26.329Z,14.48
2023-04-23T09:26:55.115Z,13.90
2023-04-23T09:29:24.257Z,11.25
2023-04-23T09:32:06.731Z,13.55
2023-04-23T09:34:36.811Z,14.30
2023-04-23T09:37:11.218Z,10.85
2023-04-23T09:39:42.158Z,13.43
2023-04-23T09:42:12.754Z,16.13
2023-04-23T09:44:40.916Z,13.32
2023-04-23T09:47:15.432Z,13.80
2023-04-23T09:49:49.040Z,19.63
2023-04-23T09:52:17.976Z,13.10
2023-04-23T09:54:47.146Z,12.60
2023-04-23T09:57:15.234Z,10.23
2023-04-23T09:59:47.751Z,12.85
2023-04-23T10:02:19.052Z,14.80
2023-04-23T10:04:52.322Z,11.93
2023-04-23T10:07:25.396Z,14.13
2023-04-23T10:09:53.431Z,11.80
2023-04-23T10:12:40.992Z,11.85
2023-04-23T10:15:10.477Z,11.63
2023-04-23T10:17:39.279Z,16.02
2023-04-23T10:20:10.003Z,10.00
2023-04-23T10:22:38.746Z,9.43
2023-04-23T10:25:12.061Z,11.30
2023-04-23T10:27:52.672Z,13.32
2023-04-23T10:30:23.730Z,11.15
2023-04-23T10:32:53.895Z,12.27
2023-04-23T10:35:22.053Z,9.82
2023-04-23T10:37:50.230Z,7.82
2023-04-23T10:40:25.053Z,10.20
2023-04-23T10:42:53.187Z,7.63
2023-04-23T10:47:55.436Z,5.50
2023-04-23T10:50:27.685Z,4.18
2023-04-23T10:53:16.474Z,4.60
2023-04-23T10:55:46.858Z,4.63
2023-04-23T10:58:16.066Z,9.15
2023-04-23T11:00:48.079Z,6.97
2023-04-23T11:03:44.493Z,5.43
2023-04-23T11:06:53.220Z,10.07
2023-04-23T11:09:41.033Z,4.97
2023-04-23T11:12:12.084Z,9.27
2023-04-23T11:14:52.627Z,6.45
2023-04-23T11:17:35.906Z,8.43
2023-04-23T11:20:21.395Z,7.55
2023-04-23T11:22:54.300Z,9.57
2023-04-23T11:25:28.443Z,7.35
2023-04-23T11:28:17.109Z,8.52
2023-04-23T11:30:46.868Z,8.32
2023-04-23T11:33:15.270Z,8.13
2023-04-23T11:35:43.367Z,5.30
2023-04-23T11:38:14.053Z,5.38
2023-04-23T11:40:42.927Z,9.90
2023-04-23T11:43:11.406Z,7.65
2023-04-23T11:45:42.371Z,8.40
2023-04-23T11:48:10.783Z,6.85
2023-04-23T11:50:39.261Z,10.63
2023-04-23T11:53:10.694Z,5.35
2023-04-23T11:55:38.714Z,5.07
2023-04-23T11:58:06.566Z,5.60
2023-04-23T12:00:34.645Z,5.57
2023-04-23T12:03:04.032Z,7.75
2023-04-23T12:05:41.438Z,5.07
2023-04-23T12:10:52.466Z,6.97
2023-04-23T12:13:30.235Z,12.10
2023-04-23T12:15:59.789Z,9.98
2023-04-23T12:18:31.841Z,6.60
2023-04-23T12:21:09.765Z,10.82
2023-04-23T12:23:38.962Z,7.80
2023-04-23T12:26:15.380Z,5.82
2023-04-23T12:28:51.032Z,8.68
2023-04-23T12:31:23.244Z,6.80
2023-04-23T12:34:08.820Z,14.18
2023-04-23T12:36:37.684Z,10.30
2023-04-23T12:39:32.062Z,4.78
2023-04-23T12:42:08.261Z,12.85
2023-04-23T12:44:39.383Z,10.35
2023-04-23T12:47:08.614Z,12.48
2023-04-23T12:49:37.366Z,7.57
2023-04-23T12:52:06.915Z,13.52
2023-04-23T12:54:39.530Z,24.98
2023-04-23T12:57:09.587Z,26.15
2023-04-23T12:59:37.833Z,14.02
2023-04-23T13:02:07.149Z,11.50
2023-04-23T13:04:37.286Z,12.43
2023-04-23T13:07:05.538Z,10.63
2023-04-23T13:09:36.182Z,9.18
2023-04-23T13:12:06.701Z,14.52
2023-04-23T13:14:36.397Z,15.65
2023-04-23T13:17:07.206Z,9.93
2023-04-23T13:19:35.771Z,11.80
2023-04-23T13:22:04.929Z,8.60
2023-04-23T13:24:33.567Z,8.68
2023-04-23T13:27:02.040Z,19.10
2023-04-23T13:29:30.254Z,16.05
2023-04-23T13:31:58.572Z,14.25
2023-04-23T13:34:26.509Z,9.55
2023-04-23T13:37:15.411Z,9.23
2023-04-23T13:39:44.776Z,10.20
2023-04-23T13:42:13.068Z,10.60
2023-04-23T13:44:41.335Z,5.78
2023-04-23T13:47:10.984Z,7.63
2023-04-23T13:49:39.169Z,11.18
2023-04-23T13:52:07.378Z,7.15
2023-04-23T13:54:40.096Z,7.63
2023-04-23T13:57:08.224Z,7.50
2023-04-23T13:59:37.283Z,6.05
2023-04-23T14:02:05.727Z,6.72
2023-04-23T14:04:36.324Z,7.43
2023-04-23T14:07:07.375Z,7.47
2023-04-23T14:09:39.020Z,9.73
2023-04-23T14:12:07.697Z,8.98
2023-04-23T14:14:35.788Z,10.70
2023-04-23T14:17:11.171Z,6.88
2023-04-23T14:19:55.695Z,9.77
2023-04-23T14:22:25.553Z,7.50
2023-04-23T14:25:01.362Z,7.75
2023-04-23T14:27:32.719Z,7.78
2023-04-23T14:30:05.531Z,10.65
2023-04-23T14:32:33.981Z,8.57
2023-04-23T14:35:07.397Z,14.52
2023-04-23T14:37:45.002Z,11.02
2023-04-23T14:40:21.726Z,9.05
2023-04-23T14:43:15.510Z,7.82
2023-04-23T14:45:44.137Z,9.70
2023-04-23T14:48:34.656Z,7.43
2023-04-23T14:51:02.617Z,10.68
2023-04-23T14:53:32.546Z,8.45
2023-04-23T14:56:01.651Z,7.13
2023-04-23T14:58:30.057Z,14.10
2023-04-23T15:00:59.478Z,6.50
2023-04-23T15:03:31.056Z,7.15
2023-04-23T15:06:00.590Z,15.60
2023-04-23T15:08:30.142Z,8.20
2023-04-23T15:11:00.036Z,9.20
2023-04-23T15:13:58.029Z,8.15
2023-04-23T15:16:48.210Z,6.25
2023-04-23T15:19:18.599Z,10.88
2023-04-23T15:21:51.878Z,8.25
2023-04-23T15:24:23.059Z,11.05
2023-04-23T15:27:04.241Z,7.78
2023-04-23T15:29:35.372Z,8.38
2023-04-23T15:32:13.126Z,11.35
2023-04-23T15:35:36.178Z,13.27
2023-04-23T15:38:08.133Z,13.88
2023-04-23T15:40:43.861Z,11.93
2023-04-23T15:43:20.025Z,15.63
2023-04-23T15:45:54.778Z,15.48
2023-04-23T15:48:25.259Z,14.23
2023-04-23T15:50:53.955Z,13.50
2023-04-23T15:53:23.142Z,19.23
2023-04-23T15:55:53.787Z,14.27
2023-04-23T15:58:21.888Z,13.90
2023-04-23T16:00:51.160Z,14.52
2023-04-23T16:03:21.807Z,10.73
2023-04-23T16:05:51.391Z,16.13
2023-04-23T16:08:19.667Z,11.95
2023-04-23T16:10:47.768Z,13.10
2023-04-23T16:13:15.824Z,11.68
2023-04-23T16:15:43.809Z,11.75
2023-04-23T16:18:11.892Z,9.82
2023-04-23T16:20:39.803Z,11.13
2023-04-23T16:23:07.901Z,12.88
2023-04-23T16:25:37.277Z,11.85
2023-04-23T16:28:07.155Z,14.95
2023-04-23T16:30:35.248Z,13.40
2023-04-23T16:33:07.363Z,15.63
2023-04-23T16:35:36.374Z,12.82
2023-04-23T16:38:04.247Z,10.88
2023-04-23T16:40:32.297Z,12.65
2023-04-23T16:43:01.361Z,13.48
2023-04-23T16:45:30.355Z,11.18
2023-04-23T16:47:58.430Z,15.57
2023-04-23T16:50:26.711Z,15.40
2023-04-23T16:52:55.085Z,10.57
2023-04-23T16:55:24.422Z,16.20
2023-04-23T16:57:53.043Z,14.45
2023-04-23T17:00:20.927Z,17.35
2023-04-23T17:02:49.223Z,16.00
2023-04-23T17:05:17.261Z,16.83
2023-04-23T17:07:45.504Z,18.17
2023-04-23T17:10:15.530Z,24.30
2023-04-23T17:12:43.910Z,19.35
2023-04-23T17:15:12.820Z,19.55
2023-04-23T17:17:41.034Z,22.67
2023-04-23T17:20:09.715Z,20.98
2023-04-23T17:22:37.804Z,23.70
2023-04-23T17:25:07.358Z,25.95
2023-04-23T17:27:35.786Z,18.85
2023-04-23T17:30:04.164Z,24.77
2023-04-23T17:32:34.041Z,39.13
2023-04-23T17:35:09.544Z,40.60
2023-04-23T17:37:39.366Z,38.63
2023-04-23T17:40:08.218Z,52.67
2023-04-23T17:42:36.546Z,64.00
2023-04-23T17:45:06.083Z,59.30
2023-04-23T17:47:37.243Z,52.35
2023-04-23T17:50:06.395Z,46.65
2023-04-23T17:52:35.378Z,32.00
2023-04-23T17:55:04.337Z,32.90
2023-04-23T17:57:33.434Z,38.15
2023-04-23T18:00:07.238Z,40.70
2023-04-23T18:02:41.047Z,32.83
2023-04-23T18:05:09.696Z,32.20
2023-04-23T18:07:38.429Z,31.73
2023-04-23T18:10:07.660Z,29.85
2023-04-23T18:12:35.651Z,39.30
2023-04-23T18:15:03.967Z,31.17
2023-04-23T18:17:32.683Z,29.60
2023-04-23T18:20:01.764Z,30.60
2023-04-23T18:22:30.142Z,33.78
2023-04-23T18:24:58.557Z,31.98
2023-04-23T18:27:27.633Z,27.65
2023-04-23T18:29:57.956Z,24.83
2023-04-23T18:32:34.598Z,29.05
2023-04-23T18:35:03.017Z,23.08
2023-04-23T18:37:48.694Z,30.48
2023-04-23T18:40:17.320Z,29.67
2023-04-23T18:42:48.429Z,24.88
2023-04-23T18:45:19.259Z,26.23
2023-04-23T18:48:34.620Z,26.75
2023-04-23T18:51:26.958Z,23.02
2023-04-23T18:53:55.095Z,25.85
2023-04-23T18:56:23.193Z,28.83
2023-04-23T18:58:51.559Z,31.25
2023-04-23T19:01:20.916Z,36.85
2023-04-23T19:03:49.228Z,41.10
2023-04-23T19:06:17.537Z,42.55
2023-04-23T19:08:46.948Z,42.67
2023-04-23T19:11:16.502Z,41.67
2023-04-23T19:13:44.338Z,42.80
2023-04-23T19:16:18.250Z,37.17
2023-04-23T19:18:46.545Z,42.08
2023-04-23T19:21:14.531Z,40.85
2023-04-23T19:23:43.652Z,37.63
2023-04-23T19:26:12.582Z,40.63
2023-04-23T19:28:41.677Z,75.07
2023-04-23T19:31:09.603Z,31.98
2023-04-23T19:33:42.267Z,32.90
2023-04-23T19:36:11.644Z,37.17
2023-04-23T19:38:40.584Z,34.03
2023-04-23T19:41:08.793Z,34.53
2023-04-23T19:43:36.751Z,35.72
2023-04-23T19:46:04.793Z,37.95
2023-04-23T19:48:33.263Z,39.55
2023-04-23T19:51:01.225Z,46.25
2023-04-23T19:53:29.410Z,42.38
2023-04-23T19:55:57.662Z,42.85
2023-04-23T19:58:28.637Z,48.50
2023-04-23T20:00:59.026Z,48.53
2023-04-23T20:03:30.956Z,49.63
2023-04-23T20:05:59.215Z,45.92
2023-04-23T20:08:29.685Z,55.13
2023-04-23T20:10:58.447Z,40.95
2023-04-23T20:13:26.450Z,52.17
2023-04-23T20:15:54.319Z,49.33
2023-04-23T20:18:22.430Z,50.60
2023-04-23T20:20:50.470Z,53.38
2023-04-23T20:23:18.837Z,50.60
2023-04-23T20:25:46.610Z,56.80
2023-04-23T20:28:15.567Z,55.63
2023-04-23T20:30:43.456Z,51.42
2023-04-23T20:33:11.399Z,64.78
2023-04-23T20:35:39.784Z,64.57
2023-04-23T20:38:09.023Z,65.47
2023-04-23T20:40:36.973Z,57.42
2023-04-23T20:43:05.047Z,59.13
2023-04-23T20:45:34.790Z,49.05
2023-04-23T20:48:03.957Z,50.92
2023-04-23T20:50:32.200Z,48.92
2023-04-23T20:53:00.091Z,51.28
2023-04-23T20:55:28.250Z,50.33
2023-04-23T20:57:56.229Z,50.05
2023-04-23T21:00:24.763Z,56.35
2023-04-23T21:02:53.891Z,52.95
2023-04-23T21:05:22.144Z,50.28
2023-04-23T21:07:50.857Z,52.70
2023-04-23T21:10:18.956Z,57.33
2023-04-23T21:12:47.050Z,51.75
2023-04-23T21:15:16.040Z,42.50
2023-04-23T21:17:44.057Z,45.28
2023-04-23T21:20:12.057Z,40.97
2023-04-23T21:22:41.932Z,43.22
2023-04-23T21:25:10.132Z,41.38
2023-04-23T21:27:38.329Z,55.42
2023-04-23T21:30:09.098Z,46.03
2023-04-23T21:32:37.072Z,49.10
2023-04-23T21:35:07.525Z,54.20
2023-04-23T21:37:37.469Z,48.17
2023-04-23T21:40:07.460Z,48.80
2023-04-23T21:42:35.813Z,55.78
2023-04-23T21:45:03.974Z,48.92
2023-04-23T21:47:32.758Z,42.42
2023-04-23T21:50:01.724Z,53.35
2023-04-23T21:52:30.808Z,51.45
2023-04-23T21:54:59.234Z,54.30
2023-04-23T21:57:27.472Z,57.63
2023-04-23T21:59:57.481Z,52.22
2023-04-23T22:02:25.815Z,56.13
2023-04-23T22:04:53.967Z,49.63
2023-04-23T22:07:24.142Z,61.88
2023-04-23T22:09:52.700Z,62.00
2023-04-23T22:12:20.824Z,55.03
2023-04-23T22:14:48.640Z,61.50
2023-04-23T22:17:18.658Z,58.42
2023-04-23T22:19:47.071Z,63.30
2023-04-23T22:22:15.672Z,58.65
2023-04-23T22:24:44.610Z,58.20
2023-04-23T22:27:12.580Z,57.38
2023-04-23T22:29:40.619Z,54.30
2023-04-23T22:32:09.665Z,59.05
2023-04-23T22:34:38.574Z,51.83
2023-04-23T22:37:07.458Z,55.10
2023-04-23T22:39:35.825Z,51.63
2023-04-23T22:42:04.664Z,48.97
2023-04-23T22:44:32.494Z,44.53
2023-04-23T22:47:00.534Z,41.42
2023-04-23T22:49:28.426Z,50.75
2023-04-23T22:51:57.419Z,56.75
2023-04-23T22:54:26.436Z,66.35
2023-04-23T22:56:54.283Z,48.00
2023-04-23T22:59:22.656Z,49.20
2023-04-23T23:01:51.182Z,45.38
2023-04-23T23:04:19.244Z,48.15
2023-04-23T23:06:47.598Z,50.50
2023-04-23T23:09:15.444Z,46.78
2023-04-23T23:11:43.434Z,59.42
2023-04-23T23:14:11.539Z,53.05
2023-04-23T23:16:39.756Z,58.00
2023-04-23T23:19:08.370Z,49.53
2023-04-23T23:21:36.237Z,51.97
2023-04-23T23:24:04.245Z,57.58
2023-04-23T23:26:32.856Z,53.83
2023-04-23T23:29:04.972Z,48.85
2023-04-23T23:31:33.833Z,50.25
2023-04-23T23:34:01.969Z,49.95
2023-04-23T23:36:35.815Z,42.72
2023-04-23T23:39:04.551Z,41.45
2023-04-23T23:41:32.858Z,37.63
2023-04-23T23:44:00.848Z,45.70
2023-04-23T23:46:28.691Z,45.33
2023-04-23T23:48:56.820Z,43.20
2023-04-23T23:51:24.592Z,48.47
2023-04-23T23:53:52.410Z,40.92
2023-04-23T23:56:20.797Z,38.50
2023-04-23T23:58:49.033Z,41.47
